Fort Smith, Fort Smith Airport (CYSM)

NameFort Smith Airport
CityFort Smith
CountryCanada
ICAOCYSM
IATAYSM
Altitude205 m
CoordinatesGoogle Map
Live Air TrafficLiveATC.net
METARCYSM 171600Z 34013G19KT 15SM BKN021 OVC040 10/06 A2976 RMK SC7SC1 SLP085
2019-08-17 16:00:00 Wind: North-Northwest (340°) 6.69 m/s - Visibility: 24140.1 m - Temperature: 10 °C - Dew point: 6 °C - Humidity: 76.4% - Pressure: 1007.79 hPa

Sorry, no flights used the airport in this database.